sensor_id;sensor_type;location;lat;lon;timestamp;pressure;altitude;pressure_sealevel;temperature;humidity
62710;BME280;48770;51.624;5.886;2023-08-12T00:00:33;101650.44;;;26.85;45.10
62710;BME280;48770;51.624;5.886;2023-08-12T00:02:58;101644.44;;;26.87;45.15
62710;BME280;48770;51.624;5.886;2023-08-12T00:05:23;101640.03;;;26.86;44.86
62710;BME280;48770;51.624;5.886;2023-08-12T00:07:49;101644.84;;;26.85;45.01
62710;BME280;48770;51.624;5.886;2023-08-12T00:10:14;101642.03;;;26.85;45.03
62710;BME280;48770;51.624;5.886;2023-08-12T00:12:40;101641.22;;;26.85;45.17
62710;BME280;48770;51.624;5.886;2023-08-12T00:15:06;101640.03;;;26.86;44.97
62710;BME280;48770;51.624;5.886;2023-08-12T00:17:33;101636.41;;;26.85;45.35
62710;BME280;48770;51.624;5.886;2023-08-12T00:20:00;101637.22;;;26.86;44.92
62710;BME280;48770;51.624;5.886;2023-08-12T00:22:25;101638.41;;;26.85;45.08
62710;BME280;48770;51.624;5.886;2023-08-12T00:24:51;101632.78;;;26.85;44.85
62710;BME280;48770;51.624;5.886;2023-08-12T00:27:17;101623.56;;;26.84;44.87
62710;BME280;48770;51.624;5.886;2023-08-12T00:29:42;101632.78;;;26.85;44.87
62710;BME280;48770;51.624;5.886;2023-08-12T00:32:08;101628.00;;;26.85;44.85
62710;BME280;48770;51.624;5.886;2023-08-12T00:34:34;101625.56;;;26.84;45.00
62710;BME280;48770;51.624;5.886;2023-08-12T00:36:59;101623.94;;;26.83;45.12
62710;BME280;48770;51.624;5.886;2023-08-12T00:39:25;101627.56;;;26.83;45.00
62710;BME280;48770;51.624;5.886;2023-08-12T00:41:50;101626.38;;;26.84;45.17
62710;BME280;48770;51.624;5.886;2023-08-12T00:44:15;101629.56;;;26.83;44.85
62710;BME280;48770;51.624;5.886;2023-08-12T00:46:42;101625.56;;;26.84;45.18
62710;BME280;48770;51.624;5.886;2023-08-12T00:49:08;101619.94;;;26.84;45.03
62710;BME280;48770;51.624;5.886;2023-08-12T00:51:35;101612.34;;;26.84;44.96
62710;BME280;48770;51.624;5.886;2023-08-12T00:54:02;101614.34;;;26.84;45.11
62710;BME280;48770;51.624;5.886;2023-08-12T00:56:30;101617.16;;;26.84;45.10
62710;BME280;48770;51.624;5.886;2023-08-12T00:58:56;101610.72;;;26.83;45.10
62710;BME280;48770;51.624;5.886;2023-08-12T01:01:21;101611.09;;;26.82;44.95
62710;BME280;48770;51.624;5.886;2023-08-12T01:03:47;101599.88;;;26.82;45.00
62710;BME280;48770;51.624;5.886;2023-08-12T01:06:12;101598.69;;;26.83;45.06
62710;BME280;48770;51.624;5.886;2023-08-12T01:08:38;101585.84;;;26.82;45.37
62710;BME280;48770;51.624;5.886;2023-08-12T01:11:18;101587.03;;;26.81;45.00
62710;BME280;48770;51.624;5.886;2023-08-12T01:14:08;101576.63;;;26.81;44.93
62710;BME280;48770;51.624;5.886;2023-08-12T01:16:39;101578.63;;;26.81;45.01
62710;BME280;48770;51.624;5.886;2023-08-12T01:19:06;101575.81;;;26.81;45.06
62710;BME280;48770;51.624;5.886;2023-08-12T01:21:36;101584.22;;;26.81;45.26
62710;BME280;48770;51.624;5.886;2023-08-12T01:24:05;101582.22;;;26.81;45.14
62710;BME280;48770;51.624;5.886;2023-08-12T01:26:30;101582.22;;;26.81;45.30
62710;BME280;48770;51.624;5.886;2023-08-12T01:28:56;101575.81;;;26.81;45.05
62710;BME280;48770;51.624;5.886;2023-08-12T01:31:32;101573.00;;;26.81;45.13
62710;BME280;48770;51.624;5.886;2023-08-12T01:34:08;101566.56;;;26.80;45.13
62710;BME280;48770;51.624;5.886;2023-08-12T01:36:38;101560.94;;;26.80;45.00
62710;BME280;48770;51.624;5.886;2023-08-12T01:39:06;101552.53;;;26.80;45.07
62710;BME280;48770;51.624;5.886;2023-08-12T01:41:34;101547.75;;;26.81;45.11
62710;BME280;48770;51.624;5.886;2023-08-12T01:44:01;101546.56;;;26.82;45.01
62710;BME280;48770;51.624;5.886;2023-08-12T01:46:27;101546.91;;;26.80;44.89
62710;BME280;48770;51.624;5.886;2023-08-12T01:48:52;101540.50;;;26.80;45.13
62710;BME280;48770;51.624;5.886;2023-08-12T01:51:18;101544.09;;;26.80;45.04
62710;BME280;48770;51.624;5.886;2023-08-12T01:53:43;101545.28;;;26.79;45.12
62710;BME280;48770;51.624;5.886;2023-08-12T01:56:08;101534.88;;;26.80;45.04
62710;BME280;48770;51.624;5.886;2023-08-12T01:58:33;101543.66;;;26.78;45.03
62710;BME280;48770;51.624;5.886;2023-08-12T02:00:59;101538.88;;;26.79;45.26
62710;BME280;48770;51.624;5.886;2023-08-12T02:03:24;101520.41;;;26.78;44.83
62710;BME280;48770;51.624;5.886;2023-08-12T02:05:49;101524.84;;;26.79;45.09
62710;BME280;48770;51.624;5.886;2023-08-12T02:08:14;101524.84;;;26.79;45.11
62710;BME280;48770;51.624;5.886;2023-08-12T02:10:40;101521.22;;;26.78;45.19
62710;BME280;48770;51.624;5.886;2023-08-12T02:13:05;101530.84;;;26.77;45.25
62710;BME280;48770;51.624;5.886;2023-08-12T02:15:31;101538.88;;;26.79;44.77
62710;BME280;48770;51.624;5.886;2023-08-12T02:17:56;101534.44;;;26.78;45.09
62710;BME280;48770;51.624;5.886;2023-08-12T02:20:21;101528.47;;;26.79;44.80
62710;BME280;48770;51.624;5.886;2023-08-12T02:22:47;101517.63;;;26.78;45.32
62710;BME280;48770;51.624;5.886;2023-08-12T02:25:12;101519.59;;;26.77;45.11
62710;BME280;48770;51.624;5.886;2023-08-12T02:27:37;101523.22;;;26.78;45.09
62710;BME280;48770;51.624;5.886;2023-08-12T02:30:03;101532.44;;;26.78;44.88
62710;BME280;48770;51.624;5.886;2023-08-12T02:32:29;101534.44;;;26.78;45.15
62710;BME280;48770;51.624;5.886;2023-08-12T02:34:54;101519.59;;;26.77;44.99
62710;BME280;48770;51.624;5.886;2023-08-12T02:37:20;101514.00;;;26.77;45.19
62710;BME280;48770;51.624;5.886;2023-08-12T02:39:45;101508.38;;;26.77;45.05
62710;BME280;48770;51.624;5.886;2023-08-12T02:42:10;101506.75;;;26.76;45.29
62710;BME280;48770;51.624;5.886;2023-08-12T02:44:36;101507.56;;;26.77;45.08
62710;BME280;48770;51.624;5.886;2023-08-12T02:47:01;101510.38;;;26.77;45.21
62710;BME280;48770;51.624;5.886;2023-08-12T02:49:26;101501.53;;;26.74;45.27
62710;BME280;48770;51.624;5.886;2023-08-12T02:51:52;101503.16;;;26.76;45.16
62710;BME280;48770;51.624;5.886;2023-08-12T02:54:18;101495.91;;;26.74;45.35
62710;BME280;48770;51.624;5.886;2023-08-12T02:56:43;101491.94;;;26.76;45.44
62710;BME280;48770;51.624;5.886;2023-08-12T02:59:09;101496.72;;;26.75;45.14
62710;BME280;48770;51.624;5.886;2023-08-12T03:01:34;101500.34;;;26.76;45.14
62710;BME280;48770;51.624;5.886;2023-08-12T03:03:59;101483.50;;;26.76;44.90
62710;BME280;48770;51.624;5.886;2023-08-12T03:06:25;101482.69;;;26.75;45.03
62710;BME280;48770;51.624;5.886;2023-08-12T03:08:50;101481.09;;;26.74;44.99
62710;BME280;48770;51.624;5.886;2023-08-12T03:11:15;101481.09;;;26.74;45.21
62710;BME280;48770;51.624;5.886;2023-08-12T03:13:41;101481.09;;;26.74;45.16
62710;BME280;48770;51.624;5.886;2023-08-12T03:16:14;101476.28;;;26.74;45.01
62710;BME280;48770;51.624;5.886;2023-08-12T03:18:39;101479.47;;;26.73;44.89
62710;BME280;48770;51.624;5.886;2023-08-12T03:21:06;101471.88;;;26.73;45.41
62710;BME280;48770;51.624;5.886;2023-08-12T03:23:32;101463.44;;;26.73;44.99
62710;BME280;48770;51.624;5.886;2023-08-12T03:25:57;101470.25;;;26.72;45.11
62710;BME280;48770;51.624;5.886;2023-08-12T03:28:22;101462.63;;;26.73;45.10
62710;BME280;48770;51.624;5.886;2023-08-12T03:30:51;101451.41;;;26.73;45.11
62710;BME280;48770;51.624;5.886;2023-08-12T03:33:17;101456.22;;;26.72;45.25
62710;BME280;48770;51.624;5.886;2023-08-12T03:35:45;101452.22;;;26.73;45.13
62710;BME280;48770;51.624;5.886;2023-08-12T03:38:10;101445.81;;;26.73;45.03
62710;BME280;48770;51.624;5.886;2023-08-12T03:40:38;101439.38;;;26.72;45.09
62710;BME280;48770;51.624;5.886;2023-08-12T03:43:03;101442.19;;;26.72;44.91
62710;BME280;48770;51.624;5.886;2023-08-12T03:45:29;101430.53;;;26.70;45.04
62710;BME280;48770;51.624;5.886;2023-08-12T03:47:54;101433.78;;;26.72;45.68
62710;BME280;48770;51.624;5.886;2023-08-12T03:50:19;101435.34;;;26.70;45.14
62710;BME280;48770;51.624;5.886;2023-08-12T03:52:45;101440.56;;;26.71;45.10
62710;BME280;48770;51.624;5.886;2023-08-12T03:55:10;101432.53;;;26.70;45.14
62710;BME280;48770;51.624;5.886;2023-08-12T03:57:36;101434.97;;;26.71;44.86
62710;BME280;48770;51.624;5.886;2023-08-12T04:00:01;101434.97;;;26.71;45.28
62710;BME280;48770;51.624;5.886;2023-08-12T04:02:27;101440.16;;;26.69;45.46
62710;BME280;48770;51.624;5.886;2023-08-12T04:04:52;101426.53;;;26.71;45.20
62710;BME280;48770;51.624;5.886;2023-08-12T04:07:17;101420.50;;;26.69;45.25
62710;BME280;48770;51.624;5.886;2023-08-12T04:09:42;101423.31;;;26.69;45.35
62710;BME280;48770;51.624;5.886;2023-08-12T04:12:08;101417.69;;;26.69;45.18
62710;BME280;48770;51.624;5.886;2023-08-12T04:14:33;101414.91;;;26.69;45.48
62710;BME280;48770;51.624;5.886;2023-08-12T04:16:58;101417.69;;;26.69;45.22
62710;BME280;48770;51.624;5.886;2023-08-12T04:19:24;101424.50;;;26.68;45.18
62710;BME280;48770;51.624;5.886;2023-08-12T04:21:49;101418.88;;;26.68;44.88
62710;BME280;48770;51.624;5.886;2023-08-12T04:24:14;101416.09;;;26.68;44.96
62710;BME280;48770;51.624;5.886;2023-08-12T04:26:40;101416.91;;;26.69;45.28
62710;BME280;48770;51.624;5.886;2023-08-12T04:29:05;101421.69;;;26.68;45.37
62710;BME280;48770;51.624;5.886;2023-08-12T04:31:30;101418.88;;;26.68;45.20
62710;BME280;48770;51.624;5.886;2023-08-12T04:33:56;101412.47;;;26.68;45.21
62710;BME280;48770;51.624;5.886;2023-08-12T04:36:21;101418.88;;;26.68;45.16
62710;BME280;48770;51.624;5.886;2023-08-12T04:38:47;101407.66;;;26.68;45.17
62710;BME280;48770;51.624;5.886;2023-08-12T04:41:12;101407.66;;;26.68;45.11
62710;BME280;48770;51.624;5.886;2023-08-12T04:43:38;101397.63;;;26.67;45.44
62710;BME280;48770;51.624;5.886;2023-08-12T04:46:03;101396.81;;;26.67;45.35
62710;BME280;48770;51.624;5.886;2023-08-12T04:48:28;101392.84;;;26.68;45.19
62710;BME280;48770;51.624;5.886;2023-08-12T04:50:56;101392.84;;;26.68;45.29
62710;BME280;48770;51.624;5.886;2023-08-12T04:53:25;101398.44;;;26.68;45.17
62710;BME280;48770;51.624;5.886;2023-08-12T04:55:50;101394.84;;;26.67;45.26
62710;BME280;48770;51.624;5.886;2023-08-12T04:58:16;101398.06;;;26.69;45.01
62710;BME280;48770;51.624;5.886;2023-08-12T05:00:42;101396.44;;;26.68;45.20
62710;BME280;48770;51.624;5.886;2023-08-12T05:03:07;101395.63;;;26.68;45.18
62710;BME280;48770;51.624;5.886;2023-08-12T05:05:32;101391.22;;;26.67;45.06
62710;BME280;48770;51.624;5.886;2023-08-12T05:07:58;101391.22;;;26.67;45.39
62710;BME280;48770;51.624;5.886;2023-08-12T05:10:23;101392.03;;;26.67;45.10
62710;BME280;48770;51.624;5.886;2023-08-12T05:12:48;101393.22;;;26.66;45.17
62710;BME280;48770;51.624;5.886;2023-08-12T05:15:15;101394.03;;;26.67;45.13
62710;BME280;48770;51.624;5.886;2023-08-12T05:17:41;101392.84;;;26.68;45.32
62710;BME280;48770;51.624;5.886;2023-08-12T05:20:06;101404.44;;;26.66;45.14
62710;BME280;48770;51.624;5.886;2023-08-12T05:22:32;101402.44;;;26.67;45.18
62710;BME280;48770;51.624;5.886;2023-08-12T05:24:57;101390.41;;;26.66;45.36
62710;BME280;48770;51.624;5.886;2023-08-12T05:27:22;101392.41;;;26.66;44.99
62710;BME280;48770;51.624;5.886;2023-08-12T05:29:48;101398.00;;;26.66;45.24
62710;BME280;48770;51.624;5.886;2023-08-12T05:32:13;101388.78;;;26.65;44.84
62710;BME280;48770;51.624;5.886;2023-08-12T05:34:38;101379.56;;;26.65;45.27
62710;BME280;48770;51.624;5.886;2023-08-12T05:37:04;101378.75;;;26.64;45.39
62710;BME280;48770;51.624;5.886;2023-08-12T05:39:29;101366.34;;;26.65;45.34
62710;BME280;48770;51.624;5.886;2023-08-12T05:41:54;101375.97;;;26.64;45.21
62710;BME280;48770;51.624;5.886;2023-08-12T05:44:19;101360.75;;;26.65;45.25
62710;BME280;48770;51.624;5.886;2023-08-12T05:46:45;101357.13;;;26.65;45.16
62710;BME280;48770;51.624;5.886;2023-08-12T05:49:11;101363.94;;;26.64;45.31
62710;BME280;48770;51.624;5.886;2023-08-12T05:51:36;101359.13;;;26.64;45.33
62710;BME280;48770;51.624;5.886;2023-08-12T05:54:03;101361.94;;;26.64;45.21
62710;BME280;48770;51.624;5.886;2023-08-12T05:56:28;101375.97;;;26.64;45.15
62710;BME280;48770;51.624;5.886;2023-08-12T05:58:54;101364.75;;;26.64;45.20
62710;BME280;48770;51.624;5.886;2023-08-12T06:01:19;101349.09;;;26.63;45.34
62710;BME280;48770;51.624;5.886;2023-08-12T06:03:44;101346.28;;;26.63;44.96
62710;BME280;48770;51.624;5.886;2023-08-12T06:06:10;101369.53;;;26.64;45.13
62710;BME280;48770;51.624;5.886;2023-08-12T06:08:35;101366.72;;;26.64;45.38
62710;BME280;48770;51.624;5.886;2023-08-12T06:11:01;101346.28;;;26.63;45.39
62710;BME280;48770;51.624;5.886;2023-08-12T06:13:26;101341.50;;;26.64;45.07
62710;BME280;48770;51.624;5.886;2023-08-12T06:15:51;101355.91;;;26.62;45.25
62710;BME280;48770;51.624;5.886;2023-08-12T06:18:16;101358.69;;;26.62;45.27
62710;BME280;48770;51.624;5.886;2023-08-12T06:20:42;101368.72;;;26.63;45.28
62710;BME280;48770;51.624;5.886;2023-08-12T06:23:07;101350.28;;;26.62;45.53
62710;BME280;48770;51.624;5.886;2023-08-12T06:25:32;101347.47;;;26.62;45.14
62710;BME280;48770;51.624;5.886;2023-08-12T06:27:58;101334.66;;;26.61;45.13
62710;BME280;48770;51.624;5.886;2023-08-12T06:30:24;101334.66;;;26.61;45.11
62710;BME280;48770;51.624;5.886;2023-08-12T06:32:49;101336.66;;;26.61;45.16
62710;BME280;48770;51.624;5.886;2023-08-12T06:35:14;101338.25;;;26.62;45.38
62710;BME280;48770;51.624;5.886;2023-08-12T06:37:40;101331.84;;;26.61;44.97
62710;BME280;48770;51.624;5.886;2023-08-12T06:40:06;101336.25;;;26.62;45.01
62710;BME280;48770;51.624;5.886;2023-08-12T06:42:31;101327.84;;;26.62;45.07
62710;BME280;48770;51.624;5.886;2023-08-12T06:44:59;101313.00;;;26.62;45.36
62710;BME280;48770;51.624;5.886;2023-08-12T06:47:25;101310.22;;;26.62;45.32
62710;BME280;48770;51.624;5.886;2023-08-12T06:49:52;101320.63;;;26.61;45.24
62710;BME280;48770;51.624;5.886;2023-08-12T06:52:17;101317.81;;;26.61;45.01
62710;BME280;48770;51.624;5.886;2023-08-12T06:54:43;101321.44;;;26.62;45.16
62710;BME280;48770;51.624;5.886;2023-08-12T06:57:08;101332.66;;;26.62;45.44
62710;BME280;48770;51.624;5.886;2023-08-12T06:59:33;101337.44;;;26.61;45.26
62710;BME280;48770;51.624;5.886;2023-08-12T07:01:59;101331.84;;;26.61;45.33
62710;BME280;48770;51.624;5.886;2023-08-12T07:04:24;101324.22;;;26.62;45.40
62710;BME280;48770;51.624;5.886;2023-08-12T07:06:50;101316.63;;;26.62;45.27
62710;BME280;48770;51.624;5.886;2023-08-12T07:09:16;101310.22;;;26.62;45.35
62710;BME280;48770;51.624;5.886;2023-08-12T07:11:41;101315.00;;;26.61;45.26
62710;BME280;48770;51.624;5.886;2023-08-12T07:14:06;101311.00;;;26.62;44.98
62710;BME280;48770;51.624;5.886;2023-08-12T07:16:33;101304.59;;;26.62;45.08
62710;BME280;48770;51.624;5.886;2023-08-12T07:18:58;101308.22;;;26.62;45.34
62710;BME280;48770;51.624;5.886;2023-08-12T07:21:23;101303.78;;;26.61;45.04
62710;BME280;48770;51.624;5.886;2023-08-12T07:23:49;101302.59;;;26.62;45.25
62710;BME280;48770;51.624;5.886;2023-08-12T07:26:14;101299.78;;;26.62;45.03
62710;BME280;48770;51.624;5.886;2023-08-12T07:28:39;101298.19;;;26.61;45.21
62710;BME280;48770;51.624;5.886;2023-08-12T07:31:05;101305.41;;;26.62;45.14
62710;BME280;48770;51.624;5.886;2023-08-12T07:33:30;101297.78;;;26.63;45.01
62710;BME280;48770;51.624;5.886;2023-08-12T07:35:56;101304.22;;;26.63;45.20
62710;BME280;48770;51.624;5.886;2023-08-12T07:38:21;101298.19;;;26.61;45.05
62710;BME280;48770;51.624;5.886;2023-08-12T07:40:48;101299.78;;;26.62;45.16
62710;BME280;48770;51.624;5.886;2023-08-12T07:43:14;101300.59;;;26.63;45.20
62710;BME280;48770;51.624;5.886;2023-08-12T07:45:39;101299.78;;;26.62;45.28
62710;BME280;48770;51.624;5.886;2023-08-12T07:48:04;101299.78;;;26.62;45.08
62710;BME280;48770;51.624;5.886;2023-08-12T07:50:30;101297.00;;;26.62;45.13
62710;BME280;48770;51.624;5.886;2023-08-12T07:52:55;101292.56;;;26.61;45.15
62710;BME280;48770;51.624;5.886;2023-08-12T07:55:20;101290.56;;;26.62;45.30
62710;BME280;48770;51.624;5.886;2023-08-12T07:57:46;101289.75;;;26.61;45.30
62710;BME280;48770;51.624;5.886;2023-08-12T08:00:11;101289.75;;;26.61;45.17
62710;BME280;48770;51.624;5.886;2023-08-12T08:02:37;101289.38;;;26.63;45.02
62710;BME280;48770;51.624;5.886;2023-08-12T08:05:03;101293.38;;;26.62;45.26
62710;BME280;48770;51.624;5.886;2023-08-12T08:07:28;101289.75;;;26.61;45.21
62710;BME280;48770;51.624;5.886;2023-08-12T08:09:54;101288.56;;;26.62;45.26
62710;BME280;48770;51.624;5.886;2023-08-12T08:12:19;101287.78;;;26.62;45.03
62710;BME280;48770;51.624;5.886;2023-08-12T08:14:45;101274.94;;;26.61;45.01
62710;BME280;48770;51.624;5.886;2023-08-12T08:17:10;101276.13;;;26.60;45.12
62710;BME280;48770;51.624;5.886;2023-08-12T08:19:35;101270.13;;;26.61;45.16
62710;BME280;48770;51.624;5.886;2023-08-12T08:22:01;101284.16;;;26.61;45.13
62710;BME280;48770;51.624;5.886;2023-08-12T08:24:26;101283.34;;;26.61;45.27
62710;BME280;48770;51.624;5.886;2023-08-12T08:26:52;101288.97;;;26.61;45.21
62710;BME280;48770;51.624;5.886;2023-08-12T08:29:17;101288.16;;;26.60;45.54
62710;BME280;48770;51.624;5.886;2023-08-12T08:31:42;101295.75;;;26.60;45.09
62710;BME280;48770;51.624;5.886;2023-08-12T08:34:08;101285.34;;;26.60;45.26
62710;BME280;48770;51.624;5.886;2023-08-12T08:36:35;101289.75;;;26.61;45.07
62710;BME280;48770;51.624;5.886;2023-08-12T08:39:00;101286.16;;;26.61;45.13
62710;BME280;48770;51.624;5.886;2023-08-12T08:41:27;101286.97;;;26.61;44.90
62710;BME280;48770;51.624;5.886;2023-08-12T08:43:55;101282.16;;;26.62;45.30
62710;BME280;48770;51.624;5.886;2023-08-12T08:46:24;101286.16;;;26.61;45.26
62710;BME280;48770;51.624;5.886;2023-08-12T08:48:50;101287.78;;;26.62;45.22
62710;BME280;48770;51.624;5.886;2023-08-12T08:51:18;101302.59;;;26.62;45.25
62710;BME280;48770;51.624;5.886;2023-08-12T08:53:44;101301.00;;;26.61;45.18
62710;BME280;48770;51.624;5.886;2023-08-12T08:56:10;101308.97;;;26.59;45.05
62710;BME280;48770;51.624;5.886;2023-08-12T08:58:37;101315.00;;;26.61;45.14
62710;BME280;48770;51.624;5.886;2023-08-12T09:01:05;101313.00;;;26.62;45.26
62710;BME280;48770;51.624;5.886;2023-08-12T09:03:32;101309.41;;;26.61;45.08
62710;BME280;48770;51.624;5.886;2023-08-12T09:05:59;101315.44;;;26.63;45.21
62710;BME280;48770;51.624;5.886;2023-08-12T09:08:25;101314.25;;;26.64;44.96
62710;BME280;48770;51.624;5.886;2023-08-12T09:10:53;101310.63;;;26.64;45.21
62710;BME280;48770;51.624;5.886;2023-08-12T09:13:19;101317.06;;;26.64;45.52
62710;BME280;48770;51.624;5.886;2023-08-12T09:15:45;101309.44;;;26.65;45.12
62710;BME280;48770;51.624;5.886;2023-08-12T09:18:10;101310.25;;;26.65;45.31
62710;BME280;48770;51.624;5.886;2023-08-12T09:20:36;101316.66;;;26.66;45.14
62710;BME280;48770;51.624;5.886;2023-08-12T09:23:02;101317.09;;;26.68;45.12
62710;BME280;48770;51.624;5.886;2023-08-12T09:25:28;101317.47;;;26.66;45.21
62710;BME280;48770;51.624;5.886;2023-08-12T09:28:00;101319.09;;;26.67;45.12
62710;BME280;48770;51.624;5.886;2023-08-12T09:30:28;101320.72;;;26.68;45.13
62710;BME280;48770;51.624;5.886;2023-08-12T09:32:59;101321.50;;;26.69;45.19
62710;BME280;48770;51.624;5.886;2023-08-12T09:35:32;101314.28;;;26.68;45.29
62710;BME280;48770;51.624;5.886;2023-08-12T09:37:57;101329.94;;;26.69;44.87
62710;BME280;48770;51.624;5.886;2023-08-12T09:40:23;101331.94;;;26.68;44.76
62710;BME280;48770;51.624;5.886;2023-08-12T09:42:49;101333.53;;;26.69;45.03
62710;BME280;48770;51.624;5.886;2023-08-12T09:45:15;101325.94;;;26.70;45.24
62710;BME280;48770;51.624;5.886;2023-08-12T09:47:43;101320.31;;;26.70;45.18
62710;BME280;48770;51.624;5.886;2023-08-12T09:50:09;101341.56;;;26.71;45.24
62710;BME280;48770;51.624;5.886;2023-08-12T09:52:35;101334.78;;;26.72;45.20
62710;BME280;48770;51.624;5.886;2023-08-12T09:55:02;101332.78;;;26.72;45.28
62710;BME280;48770;51.624;5.886;2023-08-12T09:57:30;101327.16;;;26.72;45.23
62710;BME280;48770;51.624;5.886;2023-08-12T09:59:59;101331.16;;;26.71;45.15
62710;BME280;48770;51.624;5.886;2023-08-12T10:02:26;101331.97;;;26.72;45.14
62710;BME280;48770;51.624;5.886;2023-08-12T10:04:53;101323.16;;;26.73;45.23
62710;BME280;48770;51.624;5.886;2023-08-12T10:07:21;101327.97;;;26.73;44.97
62710;BME280;48770;51.624;5.886;2023-08-12T10:09:48;101335.19;;;26.74;44.93
62710;BME280;48770;51.624;5.886;2023-08-12T10:12:14;101334.38;;;26.73;44.95
62710;BME280;48770;51.624;5.886;2023-08-12T10:14:40;101332.38;;;26.74;45.08
62710;BME280;48770;51.624;5.886;2023-08-12T10:17:06;101338.81;;;26.74;45.11
62710;BME280;48770;51.624;5.886;2023-08-12T10:19:35;101337.63;;;26.76;45.06
62710;BME280;48770;51.624;5.886;2023-08-12T10:22:03;101340.03;;;26.77;45.00
62710;BME280;48770;51.624;5.886;2023-08-12T10:24:29;101344.84;;;26.77;44.97
62710;BME280;48770;51.624;5.886;2023-08-12T10:26:55;101348.47;;;26.77;46.80
62710;BME280;48770;51.624;5.886;2023-08-12T10:29:23;101348.84;;;26.76;48.21
62710;BME280;48770;51.624;5.886;2023-08-12T10:31:49;101349.66;;;26.76;48.52
62710;BME280;48770;51.624;5.886;2023-08-12T10:34:23;101342.03;;;26.77;48.86
62710;BME280;48770;51.624;5.886;2023-08-12T10:36:54;101350.03;;;26.74;49.65
62710;BME280;48770;51.624;5.886;2023-08-12T10:39:25;101344.41;;;26.74;49.82
62710;BME280;48770;51.624;5.886;2023-08-12T10:41:51;101345.63;;;26.73;50.24
62710;BME280;48770;51.624;5.886;2023-08-12T10:44:20;101340.00;;;26.73;50.80
62710;BME280;48770;51.624;5.886;2023-08-12T10:46:51;101338.38;;;26.72;50.77
62710;BME280;48770;51.624;5.886;2023-08-12T10:49:19;101351.22;;;26.73;50.91
62710;BME280;48770;51.624;5.886;2023-08-12T10:51:49;101339.19;;;26.73;51.09
62710;BME280;48770;51.624;5.886;2023-08-12T11:02:20;101353.97;;;26.70;51.18
62710;BME280;48770;51.624;5.886;2023-08-12T11:04:57;101344.75;;;26.69;50.92
62710;BME280;48770;51.624;5.886;2023-08-12T11:10:05;101343.94;;;26.69;51.13
62710;BME280;48770;51.624;5.886;2023-08-12T11:12:33;101350.38;;;26.69;51.32
62710;BME280;48770;51.624;5.886;2023-08-12T11:15:00;101352.78;;;26.71;51.12
62710;BME280;48770;51.624;5.886;2023-08-12T11:17:47;101356.78;;;26.70;51.28
62710;BME280;48770;51.624;5.886;2023-08-12T11:20:13;101352.75;;;26.67;51.33
62710;BME280;48770;51.624;5.886;2023-08-12T11:22:43;101349.94;;;26.67;51.38
62710;BME280;48770;51.624;5.886;2023-08-12T11:25:11;101352.38;;;26.69;51.10
62710;BME280;48770;51.624;5.886;2023-08-12T11:27:44;101351.94;;;26.67;51.19
62710;BME280;48770;51.624;5.886;2023-08-12T11:30:12;101352.75;;;26.67;51.33
62710;BME280;48770;51.624;5.886;2023-08-12T11:32:41;101349.13;;;26.67;51.58
62710;BME280;48770;51.624;5.886;2023-08-12T11:35:07;101356.38;;;26.68;51.61
62710;BME280;48770;51.624;5.886;2023-08-12T11:37:35;101345.16;;;26.68;51.49
62710;BME280;48770;51.624;5.886;2023-08-12T11:40:02;101348.75;;;26.68;51.39
62710;BME280;48770;51.624;5.886;2023-08-12T11:42:28;101341.53;;;26.67;51.30
62710;BME280;48770;51.624;5.886;2023-08-12T11:44:55;101354.38;;;26.68;51.27
62710;BME280;48770;51.624;5.886;2023-08-12T11:47:20;101348.75;;;26.68;51.49
62710;BME280;48770;51.624;5.886;2023-08-12T11:49:45;101352.38;;;26.69;51.33
62710;BME280;48770;51.624;5.886;2023-08-12T11:52:11;101350.75;;;26.68;51.38
62710;BME280;48770;51.624;5.886;2023-08-12T11:54:37;101367.59;;;26.68;51.20
62710;BME280;48770;51.624;5.886;2023-08-12T11:57:03;101365.59;;;26.68;50.91
62710;BME280;48770;51.624;5.886;2023-08-12T11:59:30;101371.19;;;26.68;51.02
62710;BME280;48770;51.624;5.886;2023-08-12T12:01:55;101364.41;;;26.69;50.95
62710;BME280;48770;51.624;5.886;2023-08-12T12:04:21;101369.19;;;26.69;50.60
62710;BME280;48770;51.624;5.886;2023-08-12T12:06:47;101377.25;;;26.70;50.80
62710;BME280;48770;51.624;5.886;2023-08-12T12:09:15;101370.44;;;26.71;50.94
62710;BME280;48770;51.624;5.886;2023-08-12T12:11:43;101380.47;;;26.72;50.56
62710;BME280;48770;51.624;5.886;2023-08-12T12:14:10;101384.09;;;26.73;50.71
62710;BME280;48770;51.624;5.886;2023-08-12T12:16:46;101381.66;;;26.71;50.42
62710;BME280;48770;51.624;5.886;2023-08-12T12:19:20;101376.84;;;26.72;50.18
62710;BME280;48770;51.624;5.886;2023-08-12T12:21:47;101374.84;;;26.72;49.79
62710;BME280;48770;51.624;5.886;2023-08-12T12:24:13;101379.28;;;26.73;50.08
62710;BME280;48770;51.624;5.886;2023-08-12T12:26:39;101386.50;;;26.74;49.86
62710;BME280;48770;51.624;5.886;2023-08-12T12:29:05;101386.13;;;26.76;49.48
62710;BME280;48770;51.624;5.886;2023-08-12T12:31:34;101384.94;;;26.77;49.67
62710;BME280;48770;51.624;5.886;2023-08-12T12:34:03;101384.94;;;26.77;49.59
62710;BME280;48770;51.624;5.886;2023-08-12T12:36:33;101392.16;;;26.78;49.34
62710;BME280;48770;51.624;5.886;2023-08-12T12:38:59;101399.78;;;26.78;49.35
62710;BME280;48770;51.624;5.886;2023-08-12T12:41:24;101394.16;;;26.78;49.04
62710;BME280;48770;51.624;5.886;2023-08-12T12:43:50;101398.16;;;26.77;48.90
62710;BME280;48770;51.624;5.886;2023-08-12T12:46:15;101403.75;;;26.77;48.86
62710;BME280;48770;51.624;5.886;2023-08-12T12:48:42;101396.16;;;26.77;48.61
62710;BME280;48770;51.624;5.886;2023-08-12T12:51:07;101392.53;;;26.77;48.65
62710;BME280;48770;51.624;5.886;2023-08-12T12:53:32;101391.34;;;26.78;48.72
62710;BME280;48770;51.624;5.886;2023-08-12T12:55:59;101370.53;;;26.79;48.63